Time;durP1;ratioP1;P1;durP2;ratioP2;P2;SDS_P1;SDS_P2;PMS_P1;PMS_P2;Temp;Humidity;BMP_temperature;BMP_pressure;BME280_temperature;BME280_humidity;BME280_pressure;Samples;Min_cycle;Max_cycle;Signal;HPM_P1;HPM_P2
2022/01/23 00:00:38;;;;;;;10.03;6.00;;;5.70;99.90;;;;;;5073713;28;20408;-82
2022/01/23 00:03:08;;;;;;;12.43;6.93;;;5.70;99.90;;;;;;5073843;28;20477;-83
2022/01/23 00:05:41;;;;;;;8.67;5.80;;;5.70;99.90;;;;;;5065976;28;20512;-83
2022/01/23 00:08:06;;;;;;;8.33;5.77;;;5.70;99.90;;;;;;5053702;28;20442;-83
2022/01/23 00:10:33;;;;;;;7.87;4.07;;;5.80;99.90;;;;;;5053864;28;20417;-82
2022/01/23 00:13:25;;;;;;;8.23;3.97;;;5.70;99.90;;;;;;5053593;28;20213;-82
2022/01/23 00:18:35;;;;;;;9.23;4.43;;;5.80;99.90;;;;;;5052517;28;20499;-83
2022/01/23 00:21:01;;;;;;;6.23;3.50;;;5.80;99.90;;;;;;5053528;28;20436;-83
2022/01/23 00:23:31;;;;;;;6.07;4.30;;;5.70;99.90;;;;;;5053838;28;20184;-83
2022/01/23 00:31:28;;;;;;;12.03;4.97;;;5.70;99.90;;;;;;5073107;28;20449;-82
2022/01/23 00:33:54;;;;;;;10.40;5.47;;;5.70;99.90;;;;;;5061146;28;20928;-83
2022/01/23 00:36:21;;;;;;;5.63;3.70;;;5.80;99.90;;;;;;5050586;28;20916;-82
2022/01/23 00:39:00;;;;;;;9.03;4.70;;;5.70;99.90;;;;;;5130999;27;20571;-82
2022/01/23 00:41:25;;;;;;;9.17;4.67;;;5.80;99.90;;;;;;5129627;28;20466;-82
2022/01/23 00:43:53;;;;;;;5.87;4.37;;;5.70;99.90;;;;;;5130713;28;20421;-82
2022/01/23 00:49:24;;;;;;;7.57;3.57;;;5.80;99.90;;;;;;5130653;28;20764;-81
2022/01/23 00:51:37;;;;;;;5.50;3.03;;;5.80;99.90;;;;;;5121178;28;20172;-81
2022/01/23 00:54:05;;;;;;;6.97;3.00;;;5.80;99.90;;;;;;5121648;28;20425;-81
2022/01/23 00:56:30;;;;;;;7.10;3.40;;;5.80;99.90;;;;;;5129846;28;20423;-82
2022/01/23 00:58:56;;;;;;;8.50;3.53;;;5.80;99.90;;;;;;5112001;28;20521;-81
2022/01/23 01:01:21;;;;;;;7.33;4.13;;;5.80;99.90;;;;;;5129973;28;20175;-81
2022/01/23 01:03:48;;;;;;;6.53;3.70;;;5.80;99.90;;;;;;5130315;28;20176;-82
2022/01/23 01:06:14;;;;;;;6.67;2.97;;;5.80;99.90;;;;;;5130316;28;20179;-82
2022/01/23 01:08:41;;;;;;;6.13;4.00;;;5.80;99.90;;;;;;5130060;28;20417;-82
2022/01/23 01:14:18;;;;;;;7.27;3.93;;;5.80;99.90;;;;;;5130651;28;20758;-82
2022/01/23 01:30:29;;;;;;;6.13;3.67;;;5.80;99.90;;;;;;5129964;28;20420;-81
2022/01/23 01:33:23;;;;;;;5.70;3.53;;;5.80;99.90;;;;;;5129975;28;20414;-81
2022/01/23 01:35:56;;;;;;;8.47;3.73;;;5.80;99.90;;;;;;5129963;28;20405;-81
2022/01/23 01:38:23;;;;;;;8.23;4.60;;;5.80;99.90;;;;;;5129588;28;20470;-81
2022/01/23 01:40:49;;;;;;;7.30;3.67;;;5.80;99.90;;;;;;5129799;28;20403;-81
2022/01/23 01:43:15;;;;;;;12.70;5.33;;;5.90;99.90;;;;;;5129677;28;21006;-81
2022/01/23 01:45:42;;;;;;;7.17;4.60;;;5.80;99.90;;;;;;5129332;28;20168;-81
2022/01/23 01:48:08;;;;;;;6.70;3.23;;;5.80;99.90;;;;;;5128358;28;20173;-81
2022/01/23 01:50:34;;;;;;;8.63;4.40;;;5.80;99.90;;;;;;5115667;28;20418;-82
2022/01/23 01:53:00;;;;;;;10.97;4.23;;;5.80;99.90;;;;;;5115978;28;20449;-81
2022/01/23 01:55:29;;;;;;;9.00;4.63;;;5.90;99.90;;;;;;5115672;28;20417;-81
2022/01/23 01:58:01;;;;;;;8.00;4.23;;;5.90;99.90;;;;;;5115616;28;20204;-81
2022/01/23 02:08:29;;;;;;;7.23;3.83;;;5.80;99.90;;;;;;5115828;28;20425;-82
2022/01/23 02:11:03;;;;;;;6.50;3.47;;;5.90;99.90;;;;;;5115594;28;20781;-82
2022/01/23 02:54:23;;;;;;;8.03;3.97;;;5.90;99.90;;;;;;5094307;28;20914;-81
2022/01/23 02:56:52;;;;;;;4.30;3.07;;;5.90;99.90;;;;;;5094174;28;20474;-81
2022/01/23 02:59:24;;;;;;;6.63;4.70;;;6.00;99.90;;;;;;5094070;28;20453;-81
2022/01/23 03:04:26;;;;;;;7.77;4.70;;;6.00;99.90;;;;;;5094209;28;20546;-82
2022/01/23 03:07:08;;;;;;;9.23;5.70;;;5.90;99.90;;;;;;5094049;28;20406;-82
2022/01/23 03:12:10;;;;;;;7.57;4.50;;;5.90;99.90;;;;;;5094020;28;20401;-82
2022/01/23 03:14:45;;;;;;;7.57;4.80;;;5.90;99.90;;;;;;5093758;28;20200;-82
2022/01/23 03:28:20;;;;;;;6.50;4.37;;;6.00;99.90;;;;;;5069562;28;20420;-82
2022/01/23 03:31:05;;;;;;;10.37;5.10;;;6.00;99.90;;;;;;5093291;28;20408;-82
2022/01/23 03:33:39;;;;;;;10.27;5.90;;;6.00;99.90;;;;;;5093722;28;20461;-82
2022/01/23 03:36:05;;;;;;;9.57;4.97;;;6.00;99.90;;;;;;5093466;28;20781;-83
2022/01/23 03:38:31;;;;;;;6.20;3.40;;;6.00;99.90;;;;;;5093198;28;20492;-82
2022/01/23 03:40:56;;;;;;;9.73;4.53;;;6.00;99.90;;;;;;5106567;28;20180;-83
2022/01/23 03:43:28;;;;;;;7.47;4.80;;;6.00;99.90;;;;;;5092358;28;20432;-83
2022/01/23 03:51:14;;;;;;;6.33;3.57;;;6.00;99.90;;;;;;5093761;28;20415;-82
2022/01/23 03:53:43;;;;;;;6.17;3.87;;;6.00;99.90;;;;;;5093679;28;20445;-83
2022/01/23 03:56:09;;;;;;;6.87;4.00;;;6.00;99.90;;;;;;5093613;28;20845;-83
2022/01/23 03:58:34;;;;;;;7.97;3.57;;;6.00;99.90;;;;;;5092663;28;20550;-83
2022/01/23 04:01:01;;;;;;;9.00;4.80;;;6.00;99.90;;;;;;5093050;28;20175;-83
2022/01/23 04:03:27;;;;;;;7.27;5.13;;;6.00;99.90;;;;;;5092821;28;20168;-82
2022/01/23 04:05:52;;;;;;;7.53;4.80;;;6.00;99.90;;;;;;5092655;28;20430;-82
2022/01/23 04:08:19;;;;;;;8.83;4.30;;;6.00;99.90;;;;;;5093264;28;20922;-82
2022/01/23 04:10:45;;;;;;;9.47;4.40;;;6.00;99.90;;;;;;5093344;28;20167;-82
2022/01/23 04:13:26;;;;;;;7.27;5.07;;;6.00;99.90;;;;;;5091811;28;20415;-82
2022/01/23 05:02:15;;;;;;;6.90;3.77;;;6.10;99.90;;;;;;5092956;28;20474;-81
2022/01/23 05:04:44;;;;;;;6.50;3.97;;;6.10;99.90;;;;;;5092806;28;20415;-81
2022/01/23 05:07:13;;;;;;;9.33;4.30;;;6.20;99.90;;;;;;5092692;28;21031;-82
2022/01/23 05:09:39;;;;;;;9.77;5.20;;;6.20;99.90;;;;;;5092819;28;20420;-81
2022/01/23 05:12:07;;;;;;;7.57;4.10;;;6.20;99.90;;;;;;5092701;28;20423;-81
2022/01/23 05:14:39;;;;;;;10.20;5.57;;;6.20;99.90;;;;;;5092344;28;20566;-81
2022/01/23 05:17:07;;;;;;;9.27;3.97;;;6.20;99.90;;;;;;5092535;28;20523;-82
2022/01/23 05:19:34;;;;;;;11.17;5.23;;;6.20;99.90;;;;;;5092479;28;20420;-82
2022/01/23 05:22:17;;;;;;;9.63;5.50;;;6.20;99.90;;;;;;5092640;28;20922;-82
2022/01/23 05:24:49;;;;;;;8.20;4.73;;;6.20;99.90;;;;;;5094805;28;20470;-82
2022/01/23 05:27:15;;;;;;;10.90;5.87;;;6.20;99.90;;;;;;5096485;28;20427;-81
2022/01/23 05:29:40;;;;;;;10.70;5.97;;;6.20;99.90;;;;;;5096093;28;20832;-81
2022/01/23 05:32:12;;;;;;;11.07;5.80;;;6.20;99.90;;;;;;5096333;28;20500;-81
2022/01/23 05:34:38;;;;;;;11.30;6.63;;;6.20;99.90;;;;;;5078214;28;20265;-81
2022/01/23 05:37:04;;;;;;;11.17;5.97;;;6.20;99.90;;;;;;5096013;28;20503;-81
2022/01/23 05:39:32;;;;;;;12.43;5.90;;;6.20;99.90;;;;;;5096344;28;20263;-81
2022/01/23 05:42:05;;;;;;;11.80;6.37;;;6.20;99.90;;;;;;5094987;28;20859;-81
2022/01/23 05:44:30;;;;;;;12.97;6.90;;;6.20;99.90;;;;;;5095849;28;20416;-81
2022/01/23 05:46:56;;;;;;;13.00;5.63;;;6.20;99.90;;;;;;5096129;28;20412;-81
2022/01/23 05:49:22;;;;;;;13.80;6.50;;;6.20;99.90;;;;;;5094846;28;20182;-82
2022/01/23 05:51:48;;;;;;;10.30;6.40;;;6.20;99.90;;;;;;5096089;28;20170;-81
2022/01/23 05:54:14;;;;;;;12.97;7.53;;;6.30;99.90;;;;;;5095985;28;20971;-81
2022/01/23 05:56:39;;;;;;;13.53;7.07;;;6.20;99.90;;;;;;5095917;28;20184;-82
2022/01/23 05:59:05;;;;;;;11.43;5.67;;;6.30;99.90;;;;;;5095479;28;20511;-82
2022/01/23 06:01:30;;;;;;;10.60;5.80;;;6.30;99.90;;;;;;5095881;28;20175;-82
2022/01/23 06:03:56;;;;;;;11.47;7.27;;;6.30;99.90;;;;;;5094504;28;20327;-82
2022/01/23 06:06:21;;;;;;;11.47;6.50;;;6.30;99.90;;;;;;5095657;28;20542;-82
2022/01/23 06:08:47;;;;;;;12.20;6.70;;;6.30;99.90;;;;;;5095707;28;20173;-82
2022/01/23 06:11:12;;;;;;;10.17;6.10;;;6.30;99.90;;;;;;5095572;28;20563;-81
2022/01/23 06:13:38;;;;;;;9.80;6.57;;;6.30;99.90;;;;;;5095664;28;20177;-82
2022/01/23 06:16:04;;;;;;;10.93;6.53;;;6.40;99.90;;;;;;5093885;28;20220;-82
2022/01/23 06:18:29;;;;;;;15.10;6.60;;;6.40;99.90;;;;;;5095393;28;20215;-82
2022/01/23 06:20:55;;;;;;;11.70;6.20;;;6.30;99.90;;;;;;5077295;28;20679;-82
2022/01/23 06:23:28;;;;;;;11.50;6.30;;;6.40;99.90;;;;;;5095292;28;20709;-82
2022/01/23 06:25:54;;;;;;;11.80;7.27;;;6.40;99.90;;;;;;5095289;28;20175;-81
2022/01/23 06:28:38;;;;;;;10.03;6.03;;;6.40;99.90;;;;;;5095293;28;20934;-81
2022/01/23 06:31:04;;;;;;;11.10;5.90;;;6.40;99.90;;;;;;5076709;28;20166;-81
2022/01/23 06:33:30;;;;;;;11.07;7.20;;;6.40;99.90;;;;;;5095107;28;20423;-82
2022/01/23 06:35:55;;;;;;;10.67;5.97;;;6.40;99.90;;;;;;5094921;28;20273;-81
2022/01/23 06:38:21;;;;;;;8.30;4.53;;;6.40;99.90;;;;;;5093569;28;20819;-82
2022/01/23 06:40:46;;;;;;;9.73;5.50;;;6.50;99.90;;;;;;5094973;28;20180;-81
2022/01/23 06:43:12;;;;;;;8.63;4.30;;;6.50;99.90;;;;;;5076813;28;20514;-81
2022/01/23 06:45:37;;;;;;;6.60;4.47;;;6.50;99.90;;;;;;5094550;28;20236;-81
2022/01/23 06:48:03;;;;;;;10.87;4.37;;;6.40;99.90;;;;;;5094704;28;20185;-81
2022/01/23 06:50:28;;;;;;;8.40;4.33;;;6.40;99.90;;;;;;5094749;28;20188;-81
2022/01/23 06:52:54;;;;;;;9.80;4.40;;;6.50;99.90;;;;;;5076693;28;20173;-82
2022/01/23 06:55:19;;;;;;;8.27;4.80;;;6.50;99.90;;;;;;5076572;28;20623;-82
2022/01/23 06:57:45;;;;;;;9.73;4.70;;;6.50;99.90;;;;;;5094755;28;20300;-81
2022/01/23 07:00:11;;;;;;;8.77;4.53;;;6.50;99.90;;;;;;5094222;28;20170;-81
2022/01/23 07:02:37;;;;;;;9.00;4.00;;;6.50;99.90;;;;;;5094521;28;20260;-81
2022/01/23 07:05:03;;;;;;;8.93;3.97;;;6.50;99.90;;;;;;5094494;28;20460;-80
2022/01/23 07:07:28;;;;;;;12.90;4.83;;;6.50;99.90;;;;;;5094458;28;20206;-81
2022/01/23 07:09:54;;;;;;;8.37;5.50;;;6.50;99.90;;;;;;5094501;28;20421;-81
2022/01/23 07:12:19;;;;;;;15.60;5.23;;;6.50;99.90;;;;;;5076434;28;20171;-82
2022/01/23 07:14:44;;;;;;;8.53;4.17;;;6.50;99.90;;;;;;5093948;28;20175;-82
2022/01/23 07:17:10;;;;;;;9.83;4.80;;;6.50;99.90;;;;;;5094118;28;20203;-81
2022/01/23 07:19:35;;;;;;;13.83;4.93;;;6.60;99.90;;;;;;5075884;28;20538;-81
2022/01/23 07:22:01;;;;;;;13.73;6.17;;;6.50;99.90;;;;;;5092907;28;20175;-82
2022/01/23 07:24:27;;;;;;;11.30;4.57;;;6.50;99.90;;;;;;5094129;28;20249;-82
2022/01/23 07:26:52;;;;;;;9.23;4.87;;;6.50;99.90;;;;;;5075881;28;20195;-82
2022/01/23 07:29:18;;;;;;;8.20;4.63;;;6.50;99.90;;;;;;5093604;28;20228;-82
2022/01/23 07:31:55;;;;;;;6.60;3.33;;;6.60;99.90;;;;;;5093919;28;20163;-82
2022/01/23 07:34:20;;;;;;;13.07;4.27;;;6.60;99.90;;;;;;5094121;28;20417;-82
2022/01/23 07:36:46;;;;;;;9.43;5.13;;;6.60;99.90;;;;;;5093637;28;20809;-82
2022/01/23 07:39:11;;;;;;;8.47;4.03;;;6.60;99.90;;;;;;5093904;28;20169;-82
2022/01/23 07:41:37;;;;;;;9.07;5.17;;;6.60;99.90;;;;;;5093906;28;20208;-81
2022/01/23 07:44:03;;;;;;;11.03;5.00;;;6.70;99.90;;;;;;5093427;28;20177;-80
2022/01/23 07:46:28;;;;;;;12.73;5.20;;;6.60;99.90;;;;;;5093178;28;20223;-80
2022/01/23 07:48:54;;;;;;;9.70;4.17;;;6.60;99.90;;;;;;5092138;28;20955;-81
2022/01/23 07:51:20;;;;;;;11.00;5.87;;;6.60;99.90;;;;;;5093810;28;20580;-82
2022/01/23 07:53:45;;;;;;;14.90;6.10;;;6.60;99.90;;;;;;5093724;28;20222;-82
2022/01/23 07:56:11;;;;;;;9.20;5.00;;;6.60;99.90;;;;;;5093607;28;20181;-82
2022/01/23 07:58:36;;;;;;;11.13;5.30;;;6.70;99.90;;;;;;5093170;28;20251;-81
2022/01/23 08:01:02;;;;;;;18.50;6.07;;;6.70;99.90;;;;;;5075496;28;20320;-80
2022/01/23 08:03:27;;;;;;;9.43;5.93;;;6.70;99.90;;;;;;5093444;28;20188;-83
2022/01/23 08:05:53;;;;;;;13.87;6.00;;;6.70;99.90;;;;;;5093369;28;20174;-81
2022/01/23 08:08:18;;;;;;;10.03;5.10;;;6.70;99.90;;;;;;5093380;28;20186;-82
2022/01/23 08:10:44;;;;;;;17.60;7.73;;;6.70;99.90;;;;;;5093479;28;20641;-82
2022/01/23 08:13:09;;;;;;;12.50;6.17;;;6.70;99.90;;;;;;5093281;28;20171;-81
2022/01/23 08:15:35;;;;;;;10.33;4.87;;;6.70;99.90;;;;;;5092740;28;20247;-81
2022/01/23 08:18:03;;;;;;;11.33;4.13;;;6.80;99.90;;;;;;5093116;28;20602;-81
2022/01/23 08:20:29;;;;;;;10.97;4.30;;;6.80;99.90;;;;;;5093223;28;20847;-81
2022/01/23 08:22:55;;;;;;;9.43;4.33;;;6.80;99.90;;;;;;5092984;28;20452;-82
2022/01/23 08:25:20;;;;;;;8.77;4.00;;;6.90;99.90;;;;;;5093134;28;20598;-81
2022/01/23 08:27:46;;;;;;;10.87;3.90;;;6.80;99.90;;;;;;5092982;28;20440;-82
2022/01/23 08:30:15;;;;;;;8.33;3.97;;;6.90;99.90;;;;;;5102008;28;20641;-81
2022/01/23 08:32:40;;;;;;;9.53;5.70;;;6.90;99.90;;;;;;5112979;28;20276;-81
2022/01/23 08:35:09;;;;;;;10.47;5.53;;;6.90;99.90;;;;;;5113171;28;20416;-82
2022/01/23 08:37:34;;;;;;;9.63;4.67;;;6.90;99.90;;;;;;5112956;28;20221;-81
2022/01/23 08:40:00;;;;;;;9.70;3.87;;;6.90;99.90;;;;;;5113028;28;20412;-82
2022/01/23 08:42:26;;;;;;;11.83;4.27;;;7.00;99.90;;;;;;5113037;28;20165;-82
2022/01/23 08:44:52;;;;;;;7.97;3.73;;;7.00;99.90;;;;;;5113516;28;20409;-81
2022/01/23 08:47:18;;;;;;;5.10;2.37;;;7.00;99.90;;;;;;5113217;28;20287;-81
2022/01/23 08:49:48;;;;;;;11.57;3.33;;;6.90;99.90;;;;;;5113259;28;20179;-81
2022/01/23 08:52:17;;;;;;;9.90;4.30;;;6.90;99.90;;;;;;5113254;28;20421;-83
2022/01/23 08:54:44;;;;;;;6.90;3.60;;;7.00;99.90;;;;;;5113066;28;20425;-82
2022/01/23 08:57:11;;;;;;;5.20;3.30;;;7.00;99.90;;;;;;5112883;28;20458;-81
2022/01/23 08:59:37;;;;;;;8.50;3.57;;;7.00;99.90;;;;;;5114546;28;20506;-81
2022/01/23 09:02:03;;;;;;;5.40;2.80;;;7.00;99.90;;;;;;5098990;28;20503;-81
2022/01/23 09:04:28;;;;;;;5.20;2.30;;;7.00;99.90;;;;;;5116935;28;20173;-81
2022/01/23 09:07:00;;;;;;;8.73;3.67;;;7.00;99.90;;;;;;5116754;28;20410;-83
2022/01/23 09:09:30;;;;;;;9.27;4.10;;;7.00;99.90;;;;;;5109792;28;20260;-82
2022/01/23 09:12:06;;;;;;;8.17;3.17;;;7.20;99.90;;;;;;5109247;28;20410;-83
2022/01/23 09:14:32;;;;;;;10.90;4.07;;;7.10;99.90;;;;;;5116369;28;20500;-81
2022/01/23 09:16:58;;;;;;;9.77;4.50;;;7.10;99.90;;;;;;5116498;28;20435;-82
2022/01/23 09:19:25;;;;;;;8.13;3.60;;;7.20;99.90;;;;;;5116570;28;20501;-82
2022/01/23 09:21:52;;;;;;;9.50;4.80;;;7.10;99.90;;;;;;5116376;28;20526;-82
2022/01/23 09:24:20;;;;;;;9.80;4.73;;;7.10;99.90;;;;;;5116513;28;20420;-81
2022/01/23 09:26:52;;;;;;;10.77;7.17;;;7.10;99.90;;;;;;5098207;28;20439;-82
2022/01/23 09:29:25;;;;;;;17.17;6.43;;;7.20;99.90;;;;;;5116066;28;20498;-81
2022/01/23 09:31:52;;;;;;;15.50;4.97;;;7.20;99.90;;;;;;5116449;28;20426;-82
2022/01/23 09:34:19;;;;;;;11.63;5.63;;;7.20;99.90;;;;;;5116223;28;21013;-82
2022/01/23 09:36:44;;;;;;;13.40;6.60;;;7.20;99.90;;;;;;5116007;28;20502;-81
2022/01/23 09:39:14;;;;;;;11.83;5.40;;;7.20;99.90;;;;;;5116206;28;20495;-82
2022/01/23 09:41:46;;;;;;;12.60;6.30;;;7.20;99.90;;;;;;5116216;28;20648;-82
2022/01/23 09:44:15;;;;;;;11.63;7.07;;;7.10;99.90;;;;;;5115830;28;20891;-82
2022/01/23 09:46:42;;;;;;;13.80;5.77;;;7.20;99.90;;;;;;5115989;28;20447;-81
2022/01/23 09:49:09;;;;;;;10.30;5.90;;;7.20;99.90;;;;;;5115908;28;20423;-81
2022/01/23 09:51:42;;;;;;;11.23;5.47;;;7.20;99.90;;;;;;5115976;28;20438;-81
2022/01/23 09:54:10;;;;;;;10.37;5.00;;;7.20;99.90;;;;;;5115864;28;20427;-81
2022/01/23 09:56:43;;;;;;;15.57;5.97;;;7.20;99.90;;;;;;5115197;28;20411;-83
2022/01/23 09:59:13;;;;;;;16.97;5.60;;;7.20;99.90;;;;;;5125010;28;20547;-83
2022/01/23 10:01:41;;;;;;;16.53;6.17;;;7.20;99.90;;;;;;5116357;28;20992;-82
2022/01/23 10:04:11;;;;;;;9.10;5.00;;;7.20;99.90;;;;;;5097410;28;20415;-82
2022/01/23 10:06:36;;;;;;;13.23;6.10;;;7.20;99.90;;;;;;5115721;28;20920;-82
2022/01/23 10:09:07;;;;;;;12.90;4.67;;;7.30;99.90;;;;;;5115534;28;20460;-82
2022/01/23 10:11:38;;;;;;;12.97;5.37;;;7.30;99.90;;;;;;5115368;28;20177;-82
2022/01/23 10:14:05;;;;;;;17.60;4.67;;;7.40;99.90;;;;;;5115163;28;20442;-82
2022/01/23 10:16:32;;;;;;;11.07;5.07;;;7.40;99.90;;;;;;5115530;28;20416;-83
2022/01/23 10:18:58;;;;;;;13.80;6.27;;;7.60;99.90;;;;;;5115315;28;20479;-82
2022/01/23 10:21:24;;;;;;;9.20;5.80;;;7.60;99.90;;;;;;5115438;28;20751;-81
2022/01/23 10:23:51;;;;;;;13.10;6.10;;;7.60;99.90;;;;;;5097088;28;20528;-82
2022/01/23 10:26:44;;;;;;;18.03;6.33;;;7.60;99.90;;;;;;5115238;28;20423;-82
2022/01/23 10:29:15;;;;;;;11.40;5.30;;;7.60;99.90;;;;;;5114794;28;20754;-83
2022/01/23 10:32:00;;;;;;;10.87;5.20;;;7.60;99.90;;;;;;5115288;28;20447;-83
2022/01/23 10:34:50;;;;;;;8.30;4.53;;;7.50;99.90;;;;;;5115117;28;20411;-83
2022/01/23 10:37:37;;;;;;;9.00;3.57;;;7.50;99.90;;;;;;5114732;28;20959;-83
2022/01/23 10:40:09;;;;;;;11.80;5.27;;;7.50;99.90;;;;;;5096622;28;20825;-82
2022/01/23 10:47:54;;;;;;;8.33;3.70;;;7.60;99.90;;;;;;5115156;28;20445;-82
2022/01/23 10:50:23;;;;;;;14.00;4.97;;;7.50;99.90;;;;;;5114932;28;20445;-82
2022/01/23 10:52:50;;;;;;;9.73;5.23;;;7.50;99.90;;;;;;5114706;28;20396;-82
2022/01/23 10:55:24;;;;;;;10.27;5.70;;;7.50;99.90;;;;;;5111187;28;20435;-82
2022/01/23 10:57:53;;;;;;;13.57;7.10;;;7.50;99.90;;;;;;5104684;28;20427;-82
2022/01/23 11:00:39;;;;;;;14.50;5.90;;;7.50;99.90;;;;;;5095924;28;20178;-82
2022/01/23 11:03:23;;;;;;;15.97;7.70;;;7.50;99.90;;;;;;5114759;28;20396;-82
2022/01/23 11:05:51;;;;;;;10.50;6.40;;;7.60;99.90;;;;;;5114310;28;20761;-82
2022/01/23 11:08:27;;;;;;;16.63;5.90;;;7.60;99.90;;;;;;5114415;28;20424;-82
2022/01/23 11:11:04;;;;;;;12.53;7.03;;;7.70;99.90;;;;;;5161676;22;20395;-82
2022/01/23 11:19:23;;;;;;;14.43;6.43;;;7.80;99.90;;;;;;5093967;28;20977;-83
2022/01/23 11:21:51;;;;;;;18.30;8.27;;;7.80;99.90;;;;;;5092880;28;20405;-81
2022/01/23 11:24:16;;;;;;;18.73;6.90;;;7.80;99.90;;;;;;5093652;28;20421;-82
2022/01/23 11:26:42;;;;;;;19.77;7.93;;;7.80;99.90;;;;;;5092921;28;20454;-81
2022/01/23 11:29:17;;;;;;;12.07;7.00;;;7.80;99.90;;;;;;5093304;28;20613;-82
2022/01/23 11:31:43;;;;;;;14.67;6.57;;;7.90;99.90;;;;;;5093615;28;20627;-81
2022/01/23 11:34:12;;;;;;;10.47;6.57;;;8.00;99.90;;;;;;5093645;28;20420;-82
2022/01/23 11:36:41;;;;;;;14.23;6.37;;;8.10;99.90;;;;;;5093606;28;20858;-83
2022/01/23 11:39:20;;;;;;;10.10;4.50;;;8.10;99.90;;;;;;5092177;28;21056;-82
2022/01/23 11:50:45;;;;;;;11.10;5.53;;;8.20;99.90;;;;;;5050753;28;20946;-82
2022/01/23 11:56:28;;;;;;;12.87;5.17;;;8.70;99.90;;;;;;5050739;28;20415;-83
2022/01/23 11:59:18;;;;;;;9.63;4.80;;;8.90;99.90;;;;;;5049972;28;20467;-81
2022/01/23 12:02:05;;;;;;;10.43;4.90;;;8.90;99.90;;;;;;5070376;28;20411;-83
2022/01/23 12:04:33;;;;;;;13.50;4.43;;;9.40;99.90;;;;;;5093091;28;20506;-83
2022/01/23 12:07:17;;;;;;;15.33;4.20;;;9.30;99.90;;;;;;5091610;28;20415;-84
2022/01/23 12:10:04;;;;;;;7.10;3.20;;;9.90;99.90;;;;;;5091933;28;20505;-84
2022/01/23 12:12:42;;;;;;;8.40;3.57;;;9.60;99.90;;;;;;5092436;28;20470;-83
2022/01/23 12:18:16;;;;;;;2.73;1.50;;;8.90;99.90;;;;;;5092749;28;20528;-83
2022/01/23 12:20:44;;;;;;;6.00;2.03;;;8.80;99.90;;;;;;5092670;28;20925;-83
2022/01/23 12:23:10;;;;;;;5.93;2.57;;;8.80;99.90;;;;;;5092629;28;20409;-83
2022/01/23 12:25:48;;;;;;;7.07;2.30;;;8.70;99.90;;;;;;5092648;28;21056;-84
2022/01/23 12:28:17;;;;;;;3.03;1.50;;;8.60;99.90;;;;;;5092533;28;20493;-83
2022/01/23 12:30:45;;;;;;;5.47;4.47;;;8.60;99.90;;;;;;5092679;28;20399;-82
2022/01/23 12:33:30;;;;;;;8.43;2.17;;;8.60;99.90;;;;;;5092518;28;20407;-83
2022/01/23 12:35:59;;;;;;;5.17;2.00;;;8.60;99.90;;;;;;5092701;28;20419;-83
2022/01/23 12:38:32;;;;;;;3.20;1.90;;;8.60;99.90;;;;;;5092507;28;20937;-83
2022/01/23 12:41:31;;;;;;;3.40;1.40;;;8.60;99.90;;;;;;5092504;28;20779;-84
2022/01/23 12:44:04;;;;;;;5.33;1.83;;;8.60;99.90;;;;;;5092310;28;20568;-84
2022/01/23 12:46:35;;;;;;;6.17;1.50;;;8.60;99.90;;;;;;5092641;28;20445;-83
2022/01/23 12:49:21;;;;;;;6.53;1.70;;;8.70;99.90;;;;;;5092415;28;20495;-83
2022/01/23 12:52:05;;;;;;;2.97;1.00;;;8.90;99.90;;;;;;5092532;28;20449;-83
2022/01/23 12:54:33;;;;;;;4.07;1.37;;;9.00;99.90;;;;;;5092339;28;20528;-83
2022/01/23 12:57:07;;;;;;;3.97;1.00;;;8.90;99.90;;;;;;5092309;28;20407;-84
2022/01/23 12:59:35;;;;;;;2.67;0.70;;;8.80;99.90;;;;;;5091951;28;20417;-84
2022/01/23 13:02:09;;;;;;;2.10;0.70;;;8.80;99.90;;;;;;5092315;28;20412;-84
2022/01/23 13:04:44;;;;;;;2.30;0.70;;;8.90;99.90;;;;;;5092303;28;20903;-83
2022/01/23 13:07:26;;;;;;;2.60;0.70;;;8.90;99.90;;;;;;5092540;28;20447;-83
2022/01/23 13:09:58;;;;;;;4.40;0.93;;;8.80;99.90;;;;;;5092446;28;20486;-83
2022/01/23 13:15:28;;;;;;;7.77;1.17;;;8.60;99.90;;;;;;5090082;28;20421;-84
2022/01/23 13:18:04;;;;;;;2.80;0.50;;;8.60;99.90;;;;;;5092650;28;20467;-84
2022/01/23 13:31:55;;;;;;;1.40;0.23;;;8.50;99.90;;;;;;5060527;28;20421;-83
2022/01/23 13:34:27;;;;;;;1.70;0.20;;;8.40;99.90;;;;;;5092352;28;20414;-83
2022/01/23 13:37:01;;;;;;;1.60;0.27;;;8.40;99.90;;;;;;5090931;28;20411;-84
2022/01/23 13:39:51;;;;;;;2.97;0.50;;;8.40;99.90;;;;;;5092051;28;20426;-83
2022/01/23 13:53:38;;;;;;;4.60;0.30;;;8.40;99.90;;;;;;5095609;28;20767;-84
2022/01/23 13:59:28;;;;;;;1.23;0.40;;;8.50;99.90;;;;;;5095204;28;20488;-83
2022/01/23 14:04:28;;;;;;;4.23;0.80;;;8.60;99.90;;;;;;5095707;28;20433;-83
2022/01/23 14:06:54;;;;;;;1.47;0.40;;;8.70;99.90;;;;;;5095718;28;20410;-83
2022/01/23 14:09:21;;;;;;;1.13;0.30;;;8.80;99.90;;;;;;5095596;28;20773;-83
2022/01/23 14:11:48;;;;;;;4.20;0.70;;;8.70;99.90;;;;;;5110704;28;20518;-83
2022/01/23 14:14:24;;;;;;;6.20;1.20;;;8.70;99.90;;;;;;5093760;28;20577;-83
2022/01/23 14:16:51;;;;;;;3.90;1.03;;;8.60;99.90;;;;;;5095131;28;20815;-83
2022/01/23 14:19:26;;;;;;;3.03;1.03;;;8.50;99.90;;;;;;5094545;28;20585;-85
2022/01/23 14:21:59;;;;;;;1.30;0.20;;;8.50;99.90;;;;;;5090451;28;20427;-92
2022/01/23 14:24:27;;;;;;;2.33;0.60;;;8.50;99.90;;;;;;5094620;28;20855;-89
2022/01/23 14:27:01;;;;;;;2.30;0.60;;;8.40;99.90;;;;;;5090334;28;20546;-89
2022/01/23 14:29:29;;;;;;;2.07;0.30;;;8.30;99.90;;;;;;5093854;28;20929;-90
2022/01/23 14:32:06;;;;;;;2.33;0.50;;;8.30;99.90;;;;;;5093938;28;20927;-89
2022/01/23 14:34:32;;;;;;;3.93;1.57;;;8.30;99.90;;;;;;5092252;28;21946;-87
2022/01/23 14:37:01;;;;;;;2.60;0.73;;;8.30;99.90;;;;;;5089808;28;20414;-87
2022/01/23 14:39:27;;;;;;;1.57;0.30;;;8.20;99.90;;;;;;5092637;28;20186;-88
2022/01/23 14:41:52;;;;;;;4.27;0.60;;;8.20;99.90;;;;;;5094314;28;20415;-90
2022/01/23 14:44:24;;;;;;;2.00;0.77;;;8.20;99.90;;;;;;5092502;28;20191;-88
2022/01/23 14:46:52;;;;;;;4.80;0.43;;;8.10;99.90;;;;;;5098983;28;20172;-89
2022/01/23 14:49:24;;;;;;;1.33;0.40;;;8.10;99.90;;;;;;5099782;28;20441;-87
2022/01/23 14:51:51;;;;;;;1.50;0.77;;;8.10;99.90;;;;;;5099778;28;20433;-88
2022/01/23 14:54:18;;;;;;;3.70;0.40;;;8.10;99.90;;;;;;5099734;28;20750;-88
2022/01/23 14:56:43;;;;;;;3.50;0.73;;;8.10;99.90;;;;;;5102086;28;20422;-87
2022/01/23 14:59:14;;;;;;;1.67;0.43;;;8.00;99.90;;;;;;5100435;28;20472;-87
2022/01/23 15:01:41;;;;;;;1.63;0.27;;;8.00;99.90;;;;;;5097226;28;20520;-87
2022/01/23 15:04:09;;;;;;;1.30;0.30;;;8.00;99.90;;;;;;5101973;28;20444;-87
2022/01/23 15:06:36;;;;;;;4.77;0.60;;;8.00;99.90;;;;;;5101522;28;20413;-89
2022/01/23 15:09:10;;;;;;;3.33;0.53;;;8.00;99.90;;;;;;5099404;28;20484;-88
2022/01/23 15:11:36;;;;;;;4.13;0.43;;;8.00;99.90;;;;;;5102417;28;20456;-89
2022/01/23 15:14:04;;;;;;;4.57;0.30;;;7.90;99.90;;;;;;5101605;28;20440;-87
2022/01/23 15:16:29;;;;;;;1.70;0.60;;;7.80;99.90;;;;;;5100294;28;20406;-89
2022/01/23 15:18:55;;;;;;;2.20;0.40;;;7.80;99.90;;;;;;5102467;28;20832;-89
2022/01/23 15:21:20;;;;;;;1.63;0.80;;;7.80;99.90;;;;;;5105521;28;20179;-89
2022/01/23 15:23:55;;;;;;;2.90;0.50;;;7.80;99.90;;;;;;5101986;28;20186;-89
2022/01/23 15:26:21;;;;;;;6.00;1.03;;;7.70;99.90;;;;;;5104111;28;20243;-90
2022/01/23 15:28:47;;;;;;;1.47;0.40;;;7.80;99.90;;;;;;5104012;28;20539;-89
2022/01/23 15:31:13;;;;;;;1.43;0.70;;;7.40;99.90;;;;;;5102956;28;20475;-90
2022/01/23 15:33:38;;;;;;;2.70;0.50;;;7.80;99.90;;;;;;5103536;28;20405;-91
2022/01/23 15:36:04;;;;;;;1.47;1.17;;;7.70;99.90;;;;;;5100515;28;20209;-86
2022/01/23 15:38:30;;;;;;;2.13;1.33;;;7.70;99.90;;;;;;5099817;28;20306;-89
2022/01/23 15:40:55;;;;;;;1.20;0.53;;;7.70;99.90;;;;;;5102838;28;20192;-88
2022/01/23 15:43:21;;;;;;;5.77;0.97;;;7.70;99.90;;;;;;5099675;28;20452;-86
2022/01/23 15:45:47;;;;;;;2.60;1.10;;;7.60;99.90;;;;;;5097467;28;20674;-87
2022/01/23 15:48:13;;;;;;;2.37;0.97;;;7.60;99.90;;;;;;5101503;28;20531;-88
2022/01/23 15:50:39;;;;;;;3.43;0.80;;;7.60;99.90;;;;;;5101299;28;20171;-89
2022/01/23 15:53:04;;;;;;;2.27;0.67;;;7.60;99.90;;;;;;5101326;28;20224;-87
2022/01/23 15:55:30;;;;;;;3.70;1.73;;;7.60;99.90;;;;;;5102949;28;20167;-87
2022/01/23 15:57:56;;;;;;;1.73;0.40;;;7.50;99.90;;;;;;5098740;28;20218;-88
2022/01/23 16:00:23;;;;;;;1.63;0.67;;;7.60;99.90;;;;;;5095101;28;20187;-88
2022/01/23 16:02:50;;;;;;;3.43;0.43;;;7.50;99.90;;;;;;5094480;28;20577;-87
2022/01/23 16:05:18;;;;;;;2.27;0.47;;;7.50;99.90;;;;;;5092789;28;20428;-89
2022/01/23 16:07:44;;;;;;;2.10;0.80;;;7.50;99.90;;;;;;5096407;28;20411;-86
2022/01/23 16:10:10;;;;;;;3.70;0.90;;;7.50;99.90;;;;;;5098672;28;20531;-88
2022/01/23 16:12:38;;;;;;;4.30;1.47;;;7.40;99.90;;;;;;5097712;28;20222;-88
2022/01/23 16:15:06;;;;;;;3.30;0.53;;;7.40;99.90;;;;;;5097114;28;20403;-87
2022/01/23 16:17:31;;;;;;;2.07;0.93;;;7.40;99.90;;;;;;5092440;28;20458;-88
2022/01/23 16:19:58;;;;;;;1.53;0.40;;;7.40;99.90;;;;;;5093540;28;20503;-87
2022/01/23 16:22:24;;;;;;;3.90;0.57;;;7.30;99.90;;;;;;5093316;28;20527;-88
2022/01/23 16:24:50;;;;;;;2.73;0.97;;;7.40;99.90;;;;;;5092520;28;20426;-87